CheckWX is a tool to help pilots better visualize weather data.  It is not intended as a substitute for an official pre-flight weather briefing.

18:14:35 UTC

FJDG METAR
Diego Garcia NSF Airport
Camp Justice, British Indian Ocean Territory
Current

20 mins ago

FJDG 261755Z 11012KT 9999 FEW020 SCT050 BKN080 29/25 A2992 RMK SLP129 8/870 T02860247 10293 20286 403120266 51007
Observed
May-26 @ 17:55 UTC
Wind
  • 110° at 12 KTS
Visibility
10,000+ meters
Flight Rules
VFR
Cloud Levels
  • Few at 2,000' AGL
  • Scattered at 5,000' AGL
  • Broken at 8,000' AGL
Dewpoint
25°C / 77°F
Humidity
79%
Altimeter
29.92" Hg
Pressure
1013.22 hPa
Previous

1 hour ago

FJDG 261655Z 11010KT 9999 FEW019 SCT047 SCT100 29/25 A2992 RMK SLP129 T02860247
Observed
May-26 @ 16:55 UTC
Wind
  • 110° at 10 KTS
Visibility
10,000+ meters
Flight Rules
VFR
Cloud Levels
  • Few at 1,900' AGL
  • Scattered at 4,700' AGL
  • Scattered at 10,000' AGL
Temperature
29°C / 84°F
Dewpoint
25°C / 77°F
Humidity
79%
Altimeter
29.92" Hg
Pressure
1013.22 hPa
Previous

2 hours ago

FJDG 261555Z 11011KT 9999 FEW019 SCT047 SCT100 29/25 A2991 RMK SLP125 T02880248
Observed
May-26 @ 15:55 UTC
Wind
  • 110° at 11 KTS
Visibility
10,000+ meters
Flight Rules
VFR
Cloud Levels
  • Few at 1,900' AGL
  • Scattered at 4,700' AGL
  • Scattered at 10,000' AGL
Temperature
29°C / 84°F
Dewpoint
25°C / 77°F
Humidity
79%
Altimeter
29.91" Hg
Pressure
1012.92 hPa